createdAt,value
2023-06-29T00:04:42.758Z,99853.48
2023-06-29T00:09:46.104Z,99852.89
2023-06-29T00:14:48.888Z,99856.36
2023-06-29T00:19:51.768Z,99857.61
2023-06-29T00:25:00.214Z,99859.95
2023-06-29T00:30:03.132Z,99857.91
2023-06-29T00:35:06.389Z,99863.00
2023-06-29T00:40:10.877Z,99861.41
2023-06-29T00:45:14.700Z,99857.20
2023-06-29T00:50:18.379Z,99854.08
2023-06-29T00:55:21.742Z,99855.22
2023-06-29T01:00:25.175Z,99851.65
2023-06-29T01:05:34.358Z,99849.01
2023-06-29T01:10:37.596Z,99844.42
2023-06-29T01:15:42.225Z,99843.77
2023-06-29T01:20:50.038Z,99840.64
2023-06-29T01:25:56.001Z,99839.66
2023-06-29T01:30:59.742Z,99832.19
2023-06-29T01:36:12.304Z,99835.24
2023-06-29T01:41:18.041Z,99836.72
2023-06-29T01:46:22.678Z,99831.02
2023-06-29T01:51:25.668Z,99835.39
2023-06-29T01:56:28.635Z,99837.80
2023-06-29T02:01:31.790Z,99833.51
2023-06-29T02:06:34.715Z,99838.90
2023-06-29T02:11:37.484Z,99844.27
2023-06-29T02:16:40.314Z,99847.91
2023-06-29T02:21:43.112Z,99850.13
2023-06-29T02:26:45.916Z,99850.75
2023-06-29T02:31:49.392Z,99852.23
2023-06-29T02:36:52.218Z,99861.77
2023-06-29T02:41:54.974Z,99867.71
2023-06-29T02:46:57.707Z,99863.22
2023-06-29T02:52:00.921Z,99864.48
2023-06-29T02:57:04.047Z,99869.98
2023-06-29T03:02:07.213Z,99872.82
2023-06-29T03:07:10.288Z,99876.48
2023-06-29T03:12:13.529Z,99877.77
2023-06-29T03:17:16.467Z,99879.32
2023-06-29T03:22:19.309Z,99881.31
2023-06-29T03:27:22.039Z,99882.75
2023-06-29T03:32:24.862Z,99887.31
2023-06-29T03:37:27.617Z,99880.87
2023-06-29T03:42:30.376Z,99880.73
2023-06-29T03:47:33.135Z,99884.53
2023-06-29T03:52:35.950Z,99882.50
2023-06-29T03:57:38.920Z,99879.10
2023-06-29T04:02:41.895Z,99884.18
2023-06-29T04:07:45.042Z,99887.45
2023-06-29T04:12:47.964Z,99881.10
2023-06-29T04:17:51.302Z,99885.63
2023-06-29T04:22:54.193Z,99885.21
2023-06-29T04:27:57.396Z,99886.80
2023-06-29T04:33:10.969Z,99887.79
2023-06-29T04:38:14.614Z,99888.16
2023-06-29T04:43:17.521Z,99889.56
2023-06-29T04:48:20.797Z,99888.95
2023-06-29T04:53:23.517Z,99889.92
2023-06-29T04:58:26.856Z,99886.13
2023-06-29T05:03:29.728Z,99884.27
2023-06-29T05:08:32.668Z,99877.86
2023-06-29T05:13:37.365Z,99875.77
2023-06-29T05:18:40.852Z,99879.65
2023-06-29T05:23:44.331Z,99881.83
2023-06-29T05:29:00.488Z,99874.85
2023-06-29T05:34:08.276Z,99868.23
2023-06-29T05:39:11.659Z,99874.59
2023-06-29T05:44:14.494Z,99880.11
2023-06-29T05:49:18.177Z,99882.26
2023-06-29T05:54:20.958Z,99879.37
2023-06-29T05:59:24.106Z,99879.85
2023-06-29T06:04:27.218Z,99878.96
2023-06-29T06:09:30.390Z,99886.95
2023-06-29T06:14:33.790Z,99889.32
2023-06-29T06:19:36.586Z,99891.58
2023-06-29T06:24:39.525Z,99899.77
2023-06-29T06:29:42.431Z,99898.17
2023-06-29T06:34:47.308Z,99900.35
2023-06-29T06:39:50.310Z,99898.96
2023-06-29T06:44:54.534Z,99898.48
2023-06-29T06:49:57.355Z,99891.29
2023-06-29T06:55:00.540Z,99895.55
2023-06-29T07:00:04.700Z,99903.14
2023-06-29T07:05:08.067Z,99896.45
2023-06-29T07:10:11.114Z,99889.22
2023-06-29T07:15:13.927Z,99888.70
2023-06-29T07:25:22.571Z,99886.30
2023-06-29T07:30:25.719Z,99882.77
2023-06-29T07:35:28.577Z,99886.20
2023-06-29T07:40:31.540Z,99888.06
2023-06-29T07:45:34.403Z,99884.15
2023-06-29T07:50:37.511Z,99877.61
2023-06-29T07:55:40.616Z,99876.17
2023-06-29T08:00:43.458Z,99878.75
2023-06-29T08:10:52.285Z,99869.44
2023-06-29T08:15:55.707Z,99866.93
2023-06-29T08:20:58.529Z,99860.56
2023-06-29T08:26:01.418Z,99860.28
2023-06-29T08:31:06.509Z,99857.95
2023-06-29T08:36:10.331Z,99857.86
2023-06-29T08:41:15.141Z,99859.39
2023-06-29T08:46:18.110Z,99853.63
2023-06-29T08:51:23.352Z,99847.98
2023-06-29T08:56:26.811Z,99843.63
2023-06-29T09:01:31.065Z,99845.78
2023-06-29T09:06:34.113Z,99846.69
2023-06-29T09:11:37.371Z,99844.93
2023-06-29T09:16:54.090Z,99843.83
2023-06-29T09:21:58.615Z,99839.36
2023-06-29T09:27:02.791Z,99833.01
2023-06-29T09:32:06.334Z,99832.02
2023-06-29T09:37:14.493Z,99825.23
2023-06-29T09:42:17.456Z,99825.44
2023-06-29T09:52:46.299Z,99823.64
2023-06-29T09:57:51.386Z,99822.23
2023-06-29T10:02:55.443Z,99813.25
2023-06-29T10:07:59.235Z,99812.25
2023-06-29T10:13:06.062Z,99812.39
2023-06-29T10:18:13.225Z,99806.38
2023-06-29T10:23:18.993Z,99806.42
2023-06-29T10:28:23.048Z,99798.57
2023-06-29T10:33:25.800Z,99791.83
2023-06-29T10:38:33.686Z,99794.61
2023-06-29T10:43:59.712Z,99794.58
2023-06-29T10:49:02.583Z,99787.83
2023-06-29T10:54:05.431Z,99787.66
2023-06-29T10:59:09.601Z,99786.04
2023-06-29T11:04:13.212Z,99778.86
2023-06-29T11:09:16.243Z,99773.67
2023-06-29T11:14:20.208Z,99772.61
2023-06-29T11:19:28.672Z,99767.50
2023-06-29T11:24:31.708Z,99766.35
2023-06-29T11:29:34.591Z,99762.79
2023-06-29T11:34:37.371Z,99761.59
2023-06-29T11:39:40.090Z,99754.59
2023-06-29T11:44:42.879Z,99750.49
2023-06-29T11:49:50.624Z,99744.04
2023-06-29T11:54:54.291Z,99736.23
2023-06-29T11:59:57.080Z,99730.89
2023-06-29T12:05:03.041Z,99728.58
2023-06-29T12:10:11.436Z,99725.92
2023-06-29T12:15:22.716Z,99721.37
2023-06-29T12:20:26.303Z,99727.78
2023-06-29T12:25:29.191Z,99727.11
2023-06-29T12:30:31.934Z,99719.90
2023-06-29T12:35:34.690Z,99714.95
2023-06-29T12:40:39.392Z,99713.58
2023-06-29T12:45:42.288Z,99707.71
2023-06-29T12:50:45.878Z,99705.13
2023-06-29T12:55:49.144Z,99698.54
2023-06-29T13:00:53.144Z,99696.10
2023-06-29T13:05:56.325Z,99695.52
2023-06-29T13:10:59.736Z,99697.19
2023-06-29T13:16:02.811Z,99695.09
2023-06-29T13:21:05.628Z,99690.41
2023-06-29T13:26:08.382Z,99693.98
2023-06-29T13:31:11.388Z,99689.36
2023-06-29T13:36:14.360Z,99693.88
2023-06-29T13:41:19.954Z,99686.14
2023-06-29T13:46:22.686Z,99687.17
2023-06-29T13:51:25.819Z,99690.39
2023-06-29T13:56:30.156Z,99688.06
2023-06-29T14:01:33.456Z,99684.80
2023-06-29T14:06:39.850Z,99684.44
2023-06-29T14:11:42.844Z,99675.89
2023-06-29T14:16:46.662Z,99677.20
2023-06-29T14:21:49.463Z,99672.10
2023-06-29T14:26:54.395Z,99669.23
2023-06-29T14:31:57.272Z,99675.57
2023-06-29T14:37:00.216Z,99678.92
2023-06-29T14:42:03.005Z,99675.84
2023-06-29T14:47:06.392Z,99675.33
2023-06-29T14:52:09.179Z,99674.40
2023-06-29T14:57:12.261Z,99671.77
2023-06-29T15:02:15.559Z,99670.08
2023-06-29T15:07:18.356Z,99674.22
2023-06-29T15:12:22.373Z,99671.52
2023-06-29T15:17:26.463Z,99668.73
2023-06-29T15:22:29.237Z,99663.29
2023-06-29T15:27:32.051Z,99661.70
2023-06-29T15:32:34.833Z,99658.80
2023-06-29T15:37:37.751Z,99661.17
2023-06-29T15:42:40.516Z,99658.63
2023-06-29T15:47:43.432Z,99659.27
2023-06-29T15:52:46.392Z,99658.22
2023-06-29T15:57:49.748Z,99659.18
2023-06-29T16:02:52.495Z,99665.66
2023-06-29T16:07:58.344Z,99663.42
2023-06-29T16:13:01.122Z,99668.47
2023-06-29T16:18:04.299Z,99668.85
2023-06-29T16:23:07.242Z,99662.95
2023-06-29T16:28:10.065Z,99662.40
2023-06-29T16:33:12.844Z,99667.38
2023-06-29T16:38:15.794Z,99666.70
2023-06-29T16:43:18.683Z,99668.13
2023-06-29T16:48:21.873Z,99665.71
2023-06-29T16:53:24.608Z,99669.05
2023-06-29T16:58:28.774Z,99671.28
2023-06-29T17:03:32.370Z,99669.67
2023-06-29T17:08:35.454Z,99670.56
2023-06-29T17:13:38.169Z,99673.31
2023-06-29T17:18:40.999Z,99675.73
2023-06-29T17:23:43.867Z,99679.96
2023-06-29T17:28:46.619Z,99682.86
2023-06-29T17:33:55.062Z,99682.33
2023-06-29T17:38:58.657Z,99683.74
2023-06-29T17:44:01.437Z,99683.54
2023-06-29T17:49:04.182Z,99675.83
2023-06-29T17:54:06.931Z,99677.23
2023-06-29T17:59:09.728Z,99676.70
2023-06-29T18:04:13.321Z,99674.10
2023-06-29T18:09:16.472Z,99686.62
2023-06-29T18:14:19.257Z,99686.45
2023-06-29T18:19:22.015Z,99689.45
2023-06-29T18:24:24.768Z,99689.35
2023-06-29T18:29:30.317Z,99694.98
2023-06-29T18:34:33.230Z,99698.31
2023-06-29T18:39:35.973Z,99698.69
2023-06-29T18:44:39.173Z,99703.27
2023-06-29T18:49:52.233Z,99705.59
2023-06-29T18:54:57.278Z,99712.46
2023-06-29T19:00:00.725Z,99715.63
2023-06-29T19:05:04.221Z,99723.20
2023-06-29T19:10:07.777Z,99723.25
2023-06-29T19:15:11.108Z,99724.58
2023-06-29T19:20:13.894Z,99726.57
2023-06-29T19:25:16.765Z,99726.27
2023-06-29T19:30:19.510Z,99732.88
2023-06-29T19:35:22.364Z,99735.52
2023-06-29T19:40:25.487Z,99732.38
2023-06-29T19:45:28.377Z,99732.23
2023-06-29T19:50:31.339Z,99733.78
2023-06-29T19:55:35.888Z,99733.58
2023-06-29T20:00:38.732Z,99736.19
2023-06-29T20:05:42.965Z,99730.89
2023-06-29T20:10:48.556Z,99734.59
2023-06-29T20:15:51.496Z,99734.20
2023-06-29T20:20:54.505Z,99732.62
2023-06-29T20:25:57.251Z,99737.77
2023-06-29T20:31:00.059Z,99737.45
2023-06-29T20:36:03.487Z,99730.06
2023-06-29T20:41:06.246Z,99723.81
2023-06-29T20:46:09.025Z,99724.61
2023-06-29T20:51:16.943Z,99729.39
2023-06-29T20:56:20.935Z,99726.16
2023-06-29T21:01:25.016Z,99722.36
2023-06-29T21:06:28.150Z,99724.56
2023-06-29T21:11:32.412Z,99727.34
2023-06-29T21:16:35.658Z,99725.59
2023-06-29T21:21:38.958Z,99719.29
2023-06-29T21:26:41.762Z,99714.59
2023-06-29T21:31:45.389Z,99708.33
2023-06-29T21:36:48.941Z,99711.43
2023-06-29T21:41:51.769Z,99714.73
2023-06-29T21:46:54.661Z,99713.97
2023-06-29T21:51:57.637Z,99711.15
2023-06-29T21:57:00.395Z,99711.40
2023-06-29T22:02:03.232Z,99711.48
2023-06-29T22:12:14.733Z,99711.31
2023-06-29T22:17:17.625Z,99708.48
2023-06-29T22:22:20.354Z,99705.05
2023-06-29T22:27:23.107Z,99704.10
2023-06-29T22:32:26.323Z,99703.68
2023-06-29T22:37:29.279Z,99703.48
2023-06-29T22:42:32.030Z,99705.17
2023-06-29T22:47:34.796Z,99710.87
2023-06-29T22:52:37.682Z,99718.88
2023-06-29T22:57:40.852Z,99716.60
2023-06-29T23:02:43.798Z,99710.39
2023-06-29T23:07:47.739Z,99710.20
2023-06-29T23:12:50.508Z,99708.05
2023-06-29T23:17:54.940Z,99704.49
2023-06-29T23:22:58.951Z,99702.42
2023-06-29T23:28:04.489Z,99700.65
2023-06-29T23:33:09.752Z,99702.82
2023-06-29T23:38:12.824Z,99698.19
2023-06-29T23:43:15.698Z,99700.45
2023-06-29T23:48:18.508Z,99699.69
2023-06-29T23:53:21.509Z,99700.21
2023-06-29T23:58:24.485Z,99695.05
